createdAt,value
2022-08-03T00:01:36.927Z,21.88
2022-08-03T00:04:39.331Z,21.75
2022-08-03T00:07:41.484Z,21.77
2022-08-03T00:10:44.003Z,21.70
2022-08-03T00:13:46.170Z,21.79
2022-08-03T00:16:48.564Z,21.89
2022-08-03T00:19:50.738Z,21.70
2022-08-03T00:22:53.147Z,21.60
2022-08-03T00:25:55.482Z,21.58
2022-08-03T00:28:57.917Z,21.53
2022-08-03T00:32:00.487Z,21.55
2022-08-03T00:35:08.048Z,21.54
2022-08-03T00:38:10.932Z,21.40
2022-08-03T00:41:13.306Z,21.34
2022-08-03T00:44:17.861Z,21.47
2022-08-03T00:47:20.337Z,21.42
2022-08-03T00:50:25.219Z,21.41
2022-08-03T00:53:28.459Z,21.36
2022-08-03T00:56:30.618Z,21.24
2022-08-03T00:59:33.236Z,21.23
2022-08-03T01:02:35.929Z,21.32
2022-08-03T01:05:56.002Z,21.24
2022-08-03T01:09:27.944Z,21.22
2022-08-03T01:12:36.190Z,21.10
2022-08-03T01:16:00.214Z,20.95
2022-08-03T01:19:13.259Z,20.89
2022-08-03T01:22:15.404Z,20.96
2022-08-03T01:25:54.318Z,20.85
2022-08-03T01:29:39.300Z,20.74
2022-08-03T01:32:59.108Z,20.76
2022-08-03T01:36:06.842Z,20.82
2022-08-03T01:39:11.438Z,20.81
2022-08-03T01:42:14.984Z,20.84
2022-08-03T01:45:18.816Z,20.72
2022-08-03T01:48:21.125Z,20.68
2022-08-03T01:51:23.547Z,20.65
2022-08-03T01:54:27.657Z,20.57
2022-08-03T01:57:30.791Z,20.56
2022-08-03T02:00:34.586Z,20.51
2022-08-03T02:03:59.857Z,20.59
2022-08-03T02:07:03.446Z,20.57
2022-08-03T02:10:07.561Z,20.56
2022-08-03T02:13:10.691Z,20.59
2022-08-03T02:16:13.968Z,20.62
2022-08-03T02:19:18.050Z,20.56
2022-08-03T02:22:22.845Z,20.64
2022-08-03T02:25:25.015Z,20.74
2022-08-03T02:28:35.228Z,20.72
2022-08-03T02:31:38.337Z,20.61
2022-08-03T02:34:42.219Z,20.61
2022-08-03T02:37:50.552Z,20.67
2022-08-03T02:40:55.399Z,20.76
2022-08-03T02:44:05.946Z,20.62
2022-08-03T02:47:13.088Z,20.53
2022-08-03T02:50:16.809Z,20.51
2022-08-03T02:53:19.892Z,20.46
2022-08-03T02:56:25.535Z,20.52
2022-08-03T02:59:31.180Z,20.53
2022-08-03T03:02:34.909Z,20.36
2022-08-03T03:05:52.192Z,20.26
2022-08-03T03:09:00.137Z,20.27
2022-08-03T03:12:03.020Z,20.18
2022-08-03T03:15:06.630Z,20.17
2022-08-03T03:18:10.274Z,20.15
2022-08-03T03:21:13.072Z,20.17
2022-08-03T03:24:16.693Z,20.14
2022-08-03T03:27:18.756Z,20.11
2022-08-03T03:30:21.234Z,20.13
2022-08-03T03:33:23.550Z,20.10
2022-08-03T03:36:26.025Z,20.05
2022-08-03T03:39:28.213Z,20.12
2022-08-03T03:42:30.951Z,20.10
2022-08-03T03:45:34.865Z,20.10
2022-08-03T03:48:37.374Z,20.13
2022-08-03T03:51:39.514Z,20.07
2022-08-03T03:54:43.496Z,20.18
2022-08-03T03:57:45.817Z,20.26
2022-08-03T04:00:48.335Z,20.27
2022-08-03T04:03:50.926Z,20.37
2022-08-03T04:07:11.849Z,20.43
2022-08-03T04:10:38.878Z,20.60
2022-08-03T04:13:55.422Z,20.68
2022-08-03T04:17:07.236Z,20.86
2022-08-03T04:20:11.024Z,20.89
2022-08-03T04:23:16.585Z,21.03
2022-08-03T04:26:24.523Z,21.08
2022-08-03T04:29:29.554Z,21.19
2022-08-03T04:32:31.990Z,21.38
2022-08-03T04:36:01.105Z,21.31
2022-08-03T04:39:10.680Z,21.48
2022-08-03T04:42:14.723Z,21.52
2022-08-03T04:45:19.402Z,21.66
2022-08-03T04:48:22.598Z,21.74
2022-08-03T04:51:25.991Z,21.73
2022-08-03T04:54:28.435Z,21.91
2022-08-03T04:57:30.622Z,22.01
2022-08-03T05:00:33.331Z,22.18
2022-08-03T05:03:35.469Z,22.41
2022-08-03T05:06:45.212Z,22.50
2022-08-03T05:09:57.497Z,22.42
2022-08-03T05:13:04.612Z,22.71
2022-08-03T05:16:06.927Z,22.97
2022-08-03T05:19:09.382Z,23.53
2022-08-03T05:22:11.505Z,23.74
2022-08-03T05:25:17.251Z,23.79
2022-08-03T05:28:22.307Z,23.93
2022-08-03T05:31:24.762Z,24.18
2022-08-03T05:34:27.090Z,24.82
2022-08-03T05:37:29.516Z,25.81
2022-08-03T05:40:31.870Z,25.62
2022-08-03T05:43:34.354Z,25.84
2022-08-03T05:46:39.099Z,26.23
2022-08-03T05:49:41.852Z,26.76
2022-08-03T05:52:44.484Z,28.84
2022-08-03T05:55:50.238Z,31.73
2022-08-03T05:58:54.897Z,35.92
2022-08-03T06:01:57.424Z,38.54
2022-08-03T06:04:59.893Z,40.57
2022-08-03T06:08:03.348Z,41.85
2022-08-03T06:11:05.819Z,42.99
2022-08-03T06:14:08.024Z,43.33
2022-08-03T06:17:10.334Z,44.39
2022-08-03T06:20:17.736Z,44.57
2022-08-03T06:23:20.498Z,44.87
2022-08-03T06:26:26.668Z,44.57
2022-08-03T06:29:29.019Z,45.25
2022-08-03T06:32:31.127Z,45.95
2022-08-03T06:35:33.689Z,46.31
2022-08-03T06:38:38.154Z,46.39
2022-08-03T06:41:44.873Z,45.13
2022-08-03T06:44:47.199Z,44.68
2022-08-03T06:48:10.195Z,42.14
2022-08-03T06:51:12.711Z,41.34
2022-08-03T06:54:15.237Z,42.56
2022-08-03T06:57:18.742Z,41.59
2022-08-03T07:00:21.473Z,41.68
2022-08-03T07:03:23.650Z,41.10
2022-08-03T07:06:26.153Z,40.34
2022-08-03T07:09:28.457Z,40.36
2022-08-03T07:12:31.494Z,42.60
2022-08-03T07:15:54.287Z,45.04
2022-08-03T07:18:59.061Z,45.78
2022-08-03T07:22:04.485Z,43.89
2022-08-03T07:25:07.317Z,43.83
2022-08-03T07:28:09.468Z,42.52
2022-08-03T07:31:14.206Z,38.70
2022-08-03T07:34:16.352Z,35.47
2022-08-03T07:37:18.823Z,34.03
2022-08-03T07:40:21.043Z,32.87
2022-08-03T07:43:24.268Z,31.48
2022-08-03T07:46:26.804Z,31.03
2022-08-03T07:49:29.224Z,30.48
2022-08-03T07:52:49.767Z,29.38
2022-08-03T07:55:52.562Z,28.98
2022-08-03T07:58:55.522Z,29.46
2022-08-03T08:01:58.154Z,29.69
2022-08-03T08:05:05.268Z,29.56
2022-08-03T08:08:08.368Z,29.36
2022-08-03T08:11:10.808Z,29.07
2022-08-03T08:14:12.985Z,28.91
2022-08-03T08:17:15.420Z,29.49
2022-08-03T08:20:28.034Z,29.65
2022-08-03T08:23:41.764Z,29.18
2022-08-03T08:26:45.804Z,28.91
2022-08-03T08:29:54.325Z,29.02
2022-08-03T08:32:58.111Z,29.23
2022-08-03T08:36:00.408Z,29.04
2022-08-03T08:39:02.838Z,29.03
2022-08-03T08:42:05.304Z,29.29
2022-08-03T08:45:09.248Z,29.47
2022-08-03T08:48:13.832Z,29.34
2022-08-03T08:51:19.482Z,29.15
2022-08-03T08:54:23.280Z,29.09
2022-08-03T08:57:43.142Z,28.85
2022-08-03T09:00:46.090Z,29.24
2022-08-03T09:03:48.546Z,29.00
2022-08-03T09:07:17.640Z,29.22
2022-08-03T09:10:19.758Z,29.40
2022-08-03T09:13:22.625Z,29.16
2022-08-03T09:16:24.858Z,29.85
2022-08-03T09:19:27.826Z,31.59
2022-08-03T09:22:33.322Z,33.73
2022-08-03T09:25:41.511Z,36.61
2022-08-03T09:28:59.511Z,37.20
2022-08-03T09:32:04.736Z,38.57
2022-08-03T09:35:09.533Z,41.10
2022-08-03T09:38:26.250Z,41.93
2022-08-03T09:41:28.669Z,42.18
2022-08-03T09:44:38.794Z,42.98
2022-08-03T09:47:44.926Z,42.62
2022-08-03T09:50:58.762Z,39.57
2022-08-03T09:54:18.852Z,38.41
2022-08-03T09:57:25.371Z,39.88
2022-08-03T10:00:27.568Z,40.69
2022-08-03T10:03:36.066Z,40.63
2022-08-03T10:07:11.055Z,40.45
2022-08-03T10:10:29.896Z,40.00
2022-08-03T10:13:34.507Z,40.10
2022-08-03T10:16:39.135Z,39.67
2022-08-03T10:19:41.620Z,38.74
2022-08-03T10:22:44.131Z,39.71
2022-08-03T10:25:49.392Z,40.14
2022-08-03T10:28:54.361Z,39.28
2022-08-03T10:31:58.878Z,39.44
2022-08-03T10:35:20.501Z,39.29
2022-08-03T10:38:32.693Z,39.85
2022-08-03T10:41:39.835Z,41.63
2022-08-03T10:44:42.680Z,41.74
2022-08-03T10:47:47.498Z,42.52
2022-08-03T10:50:50.658Z,43.84
2022-08-03T10:53:54.900Z,42.61
2022-08-03T10:57:16.841Z,39.73
2022-08-03T11:00:25.126Z,39.04
2022-08-03T11:03:27.414Z,40.34
2022-08-03T11:06:37.144Z,38.95
2022-08-03T11:09:44.096Z,40.10
2022-08-03T11:12:47.042Z,40.77
2022-08-03T11:15:52.240Z,41.52
2022-08-03T11:19:09.018Z,41.28
2022-08-03T11:22:11.630Z,40.16
2022-08-03T11:25:53.431Z,40.80
2022-08-03T11:28:39.962Z,41.40
2022-08-03T11:31:50.933Z,41.20
2022-08-03T11:35:09.491Z,41.19
2022-08-03T11:38:12.061Z,40.59
2022-08-03T11:41:43.369Z,38.80
2022-08-03T11:44:50.898Z,38.49
2022-08-03T11:47:56.185Z,39.22
2022-08-03T11:50:58.899Z,40.76
2022-08-03T11:54:06.088Z,42.19
2022-08-03T11:57:08.586Z,43.27
2022-08-03T12:00:32.314Z,42.71
2022-08-03T12:03:35.279Z,41.71
2022-08-03T12:06:55.937Z,40.96
2022-08-03T12:10:08.524Z,40.96
2022-08-03T12:14:43.733Z,40.84
2022-08-03T12:16:33.131Z,39.70
2022-08-03T12:19:43.003Z,38.35
2022-08-03T12:23:01.531Z,38.57
2022-08-03T12:26:06.023Z,38.45
2022-08-03T12:29:08.423Z,38.90
2022-08-03T12:32:15.370Z,39.27
2022-08-03T12:35:24.609Z,39.56
2022-08-03T12:38:27.512Z,39.77
2022-08-03T12:41:35.665Z,39.89
2022-08-03T12:44:37.791Z,40.76
2022-08-03T12:47:57.316Z,40.22
2022-08-03T12:51:11.906Z,38.48
2022-08-03T12:54:25.247Z,36.51
2022-08-03T12:57:53.710Z,35.78
2022-08-03T13:00:56.284Z,35.35
2022-08-03T13:03:58.354Z,35.76
2022-08-03T13:07:14.284Z,36.83
2022-08-03T13:10:31.423Z,36.82
2022-08-03T13:13:40.135Z,36.50
2022-08-03T13:16:42.242Z,35.95
2022-08-03T13:19:45.223Z,35.75
2022-08-03T13:22:48.292Z,35.14
2022-08-03T13:25:55.339Z,35.13
2022-08-03T13:28:58.142Z,34.64
2022-08-03T13:32:01.743Z,34.02
2022-08-03T13:35:04.564Z,33.39
2022-08-03T13:38:07.043Z,33.83
2022-08-03T13:41:09.230Z,33.99
2022-08-03T13:44:29.234Z,33.67
2022-08-03T13:47:32.069Z,32.95
2022-08-03T13:50:34.497Z,33.43
2022-08-03T13:53:36.627Z,33.37
2022-08-03T13:56:39.110Z,33.13
2022-08-03T13:59:41.277Z,33.79
2022-08-03T14:02:43.788Z,33.54
2022-08-03T14:05:47.413Z,33.49
2022-08-03T14:08:50.318Z,33.46
2022-08-03T14:12:07.665Z,33.27
2022-08-03T14:15:13.003Z,33.25
2022-08-03T14:18:27.658Z,33.34
2022-08-03T14:21:35.654Z,33.50
2022-08-03T14:24:38.090Z,33.57
2022-08-03T14:27:40.288Z,33.22
2022-08-03T14:30:42.822Z,33.21
2022-08-03T14:33:45.055Z,33.36
2022-08-03T14:36:47.450Z,33.24
2022-08-03T14:40:05.231Z,33.55
2022-08-03T14:43:07.728Z,33.36
2022-08-03T14:46:09.972Z,33.47
2022-08-03T14:50:37.851Z,33.73
2022-08-03T14:52:34.519Z,33.18
2022-08-03T14:55:38.961Z,32.99
2022-08-03T14:58:53.191Z,32.88
2022-08-03T15:02:04.360Z,32.46
2022-08-03T15:05:10.705Z,32.12
2022-08-03T15:08:13.124Z,31.84
2022-08-03T15:11:15.321Z,31.81
2022-08-03T15:14:17.724Z,32.12
2022-08-03T15:17:24.480Z,32.38
2022-08-03T15:20:42.453Z,32.70
2022-08-03T15:23:46.308Z,32.89
2022-08-03T15:26:48.690Z,33.16
2022-08-03T15:30:07.256Z,33.24
2022-08-03T15:33:14.283Z,33.10
2022-08-03T15:36:19.847Z,33.36
2022-08-03T15:39:22.328Z,33.36
2022-08-03T15:42:24.525Z,33.38
2022-08-03T15:45:28.213Z,33.20
2022-08-03T15:48:37.762Z,33.28
2022-08-03T15:51:40.393Z,33.35
2022-08-03T15:54:42.856Z,33.43
2022-08-03T15:59:04.906Z,33.46
2022-08-03T16:01:08.035Z,33.28
2022-08-03T16:04:10.453Z,33.15
2022-08-03T16:07:15.591Z,33.05
2022-08-03T16:10:19.550Z,32.94
2022-08-03T16:13:22.399Z,32.89
2022-08-03T16:16:44.643Z,32.88
2022-08-03T16:19:48.703Z,32.93
2022-08-03T16:22:52.092Z,32.64
2022-08-03T16:25:54.390Z,32.57
2022-08-03T16:28:56.703Z,32.38
2022-08-03T16:31:58.912Z,32.38
2022-08-03T16:35:01.786Z,32.47
2022-08-03T16:38:09.592Z,32.39
2022-08-03T16:41:12.866Z,32.39
2022-08-03T16:44:15.063Z,31.99
2022-08-03T16:47:22.110Z,31.93
2022-08-03T16:50:24.711Z,31.67
2022-08-03T16:53:51.608Z,31.50
2022-08-03T16:56:49.313Z,31.34
2022-08-03T16:59:52.062Z,31.19
2022-08-03T17:02:55.823Z,31.04
2022-08-03T17:05:59.609Z,30.90
2022-08-03T17:09:12.728Z,30.75
2022-08-03T17:12:16.003Z,30.61
2022-08-03T17:15:18.164Z,30.52
2022-08-03T17:18:24.019Z,30.33
2022-08-03T17:21:29.893Z,30.14
2022-08-03T17:24:41.028Z,30.04
2022-08-03T17:28:51.423Z,29.82
2022-08-03T17:31:23.255Z,29.86
2022-08-03T17:34:34.316Z,29.88
2022-08-03T17:37:57.744Z,29.96
2022-08-03T17:41:00.091Z,29.79
2022-08-03T17:44:15.792Z,29.64
2022-08-03T17:47:29.323Z,29.53
2022-08-03T17:50:51.907Z,29.40
2022-08-03T17:54:29.824Z,29.38
2022-08-03T17:58:02.709Z,29.34
2022-08-03T18:02:01.991Z,29.15
2022-08-03T18:05:17.113Z,28.84
2022-08-03T18:08:34.191Z,28.61
2022-08-03T18:11:41.828Z,28.62
2022-08-03T18:14:57.652Z,28.46
2022-08-03T18:18:10.759Z,28.33
2022-08-03T18:21:16.650Z,28.20
2022-08-03T18:24:20.661Z,28.11
2022-08-03T18:27:42.552Z,27.95
2022-08-03T18:30:54.411Z,27.86
2022-08-03T18:34:18.688Z,27.75
2022-08-03T18:37:26.217Z,27.69
2022-08-03T18:40:29.150Z,27.59
2022-08-03T18:43:47.673Z,27.73
2022-08-03T18:47:07.553Z,27.74
2022-08-03T18:50:34.167Z,27.51
2022-08-03T18:54:06.351Z,27.34
2022-08-03T18:57:17.282Z,27.20
2022-08-03T19:00:42.627Z,27.09
2022-08-03T19:03:50.269Z,26.94
2022-08-03T19:07:00.998Z,26.86
2022-08-03T19:10:09.438Z,26.79
2022-08-03T19:13:36.113Z,26.82
2022-08-03T19:16:41.947Z,26.88
2022-08-03T19:19:45.932Z,26.93
2022-08-03T19:22:48.971Z,26.90
2022-08-03T19:25:52.271Z,26.85
2022-08-03T19:28:57.108Z,26.77
2022-08-03T19:32:01.465Z,26.69
2022-08-03T19:35:05.424Z,26.63
2022-08-03T19:38:17.324Z,26.62
2022-08-03T19:41:41.692Z,26.82
2022-08-03T19:44:50.699Z,26.94
2022-08-03T19:48:09.981Z,27.00
2022-08-03T19:51:12.753Z,26.81
2022-08-03T19:54:15.783Z,26.68
2022-08-03T19:57:19.938Z,26.58
2022-08-03T20:00:26.670Z,26.45
2022-08-03T20:03:43.346Z,26.45
2022-08-03T20:06:47.030Z,26.52
2022-08-03T20:09:54.697Z,26.55
2022-08-03T20:12:59.882Z,26.67
2022-08-03T20:16:02.943Z,26.68
2022-08-03T20:19:14.312Z,26.65
2022-08-03T20:22:17.892Z,26.41
2022-08-03T20:25:22.408Z,26.36
2022-08-03T20:28:31.922Z,26.34
2022-08-03T20:31:36.215Z,26.20
2022-08-03T20:34:39.114Z,26.01
2022-08-03T20:37:41.259Z,26.11
2022-08-03T20:40:44.356Z,26.16
2022-08-03T20:43:49.444Z,26.21
2022-08-03T20:47:00.422Z,26.27
2022-08-03T20:50:07.488Z,26.19
2022-08-03T20:53:12.113Z,26.27
2022-08-03T20:56:14.609Z,26.09
2022-08-03T20:59:18.874Z,25.98
2022-08-03T21:02:29.505Z,25.89
2022-08-03T21:05:47.894Z,25.82
2022-08-03T21:09:00.227Z,25.78
2022-08-03T21:12:07.868Z,25.62
2022-08-03T21:16:02.383Z,25.61
2022-08-03T21:18:50.033Z,25.58
2022-08-03T21:21:54.183Z,25.43
2022-08-03T21:24:57.548Z,25.23
2022-08-03T21:28:01.812Z,25.06
2022-08-03T21:31:04.444Z,24.93
2022-08-03T21:34:07.200Z,24.78
2022-08-03T21:37:09.591Z,24.79
2022-08-03T21:40:17.034Z,24.77
2022-08-03T21:43:19.642Z,24.68
2022-08-03T21:46:22.225Z,24.57
2022-08-03T21:50:07.203Z,24.49
2022-08-03T21:52:51.640Z,24.41
2022-08-03T21:56:01.701Z,24.38
2022-08-03T21:59:09.086Z,24.45
2022-08-03T22:02:22.715Z,24.53
2022-08-03T22:05:43.007Z,24.49
2022-08-03T22:08:48.151Z,24.45
2022-08-03T22:11:54.031Z,24.40
2022-08-03T22:15:01.162Z,24.31
2022-08-03T22:18:05.023Z,24.27
2022-08-03T22:21:09.765Z,24.17
2022-08-03T22:24:13.315Z,24.07
2022-08-03T22:27:32.230Z,24.02
2022-08-03T22:30:35.340Z,23.96
2022-08-03T22:33:38.343Z,23.93
2022-08-03T22:36:40.804Z,23.87
2022-08-03T22:39:43.989Z,23.81
2022-08-03T22:42:49.448Z,23.78
2022-08-03T22:46:10.599Z,23.73
2022-08-03T22:49:15.871Z,23.70
2022-08-03T22:52:18.317Z,23.67
2022-08-03T22:55:24.883Z,23.68
2022-08-03T22:58:27.366Z,23.66
2022-08-03T23:01:37.112Z,23.68
2022-08-03T23:04:41.283Z,23.65
2022-08-03T23:07:44.726Z,23.66
2022-08-03T23:10:47.559Z,23.66
2022-08-03T23:13:54.006Z,23.71
2022-08-03T23:17:00.285Z,23.75
2022-08-03T23:20:06.610Z,23.74
2022-08-03T23:23:09.668Z,23.68
2022-08-03T23:26:15.757Z,23.75
2022-08-03T23:29:20.128Z,23.71
2022-08-03T23:32:25.749Z,23.74
2022-08-03T23:36:28.420Z,23.59
2022-08-03T23:39:09.679Z,23.50
2022-08-03T23:42:15.085Z,23.28
2022-08-03T23:45:19.586Z,23.20
2022-08-03T23:48:21.720Z,23.28
2022-08-03T23:51:50.167Z,23.19
2022-08-03T23:55:26.678Z,23.15
2022-08-03T23:59:00.080Z,22.99
